LGZA/ZTH METAR and TAF weather

Enter ICAO airport designator
Station Type Date Time Source
LGZA METAR 2021/01/15 17:50 UTC NOAA

LGZA 151750Z VRB02KT 9999 FEW020 BKN070 12/09 Q1010


Station Type Date Time Source
LGZA Decoded METAR 2021/01/15 17:50 UTC NOAA

Zakinthos Airport , Greece (LGZA) 37-45N 020-53E
Jan 15, 2021 - 12:50 PM EST / 2021.01.15 1750 UTC
Wind: Variable at 2 MPH (2 KT):0
Visibility: greater than 7 mile(s):0
Sky conditions: mostly cloudy
Temperature: 53 F (12 C)
Dew Point: 48 F (9 C)
Relative Humidity: 81%
Pressure (altimeter): 29.83 in. Hg (1010 hPa)
ob: LGZA 151750Z VRB02KT 9999 FEW020 BKN070 12/09 Q1010
cycle: 18

Station Type Date Time Source
LGZA TAF 2011/11/25 15:06 UTC NOAA

TAF TAF LGZA 251400Z 2515/2603 02012KT 9999 FEW025 SCT035 BKN080 PROB30
TEMPO 2518/2603 8000 RA PROB30 2522/2603 5000 BR SCT010

Example: see airport list